createdAt,value
2022-10-29T00:00:04.013Z,100433.44
2022-10-29T00:02:30.916Z,100436.13
2022-10-29T00:04:57.780Z,100441.53
2022-10-29T00:07:24.614Z,100441.38
2022-10-29T00:09:51.463Z,100439.41
2022-10-29T00:12:18.261Z,100440.41
2022-10-29T00:14:45.001Z,100445.50
2022-10-29T00:17:11.808Z,100438.50
2022-10-29T00:19:38.631Z,100437.63
2022-10-29T00:22:05.634Z,100435.03
2022-10-29T00:24:32.462Z,100431.41
2022-10-29T00:26:59.238Z,100431.03
2022-10-29T00:29:26.049Z,100417.84
2022-10-29T00:31:52.997Z,100419.81
2022-10-29T00:34:24.634Z,100415.72
2022-10-29T00:36:51.435Z,100423.38
2022-10-29T00:39:18.602Z,100423.53
2022-10-29T00:41:45.388Z,100423.13
2022-10-29T00:44:15.195Z,100420.06
2022-10-29T00:46:45.744Z,100416.25
2022-10-29T00:49:12.725Z,100413.59
2022-10-29T00:51:39.871Z,100415.00
2022-10-29T00:54:16.652Z,100411.47
2022-10-29T00:56:48.170Z,100407.75
2022-10-29T00:59:17.520Z,100414.69
2022-10-29T01:01:47.169Z,100400.66
2022-10-29T01:04:14.393Z,100407.91
2022-10-29T01:06:47.319Z,100413.47
2022-10-29T01:09:14.427Z,100407.19
2022-10-29T01:12:28.933Z,100402.91
2022-10-29T01:15:01.534Z,100408.75
2022-10-29T01:17:58.744Z,100405.25
2022-10-29T01:20:32.685Z,100402.81
2022-10-29T01:23:11.398Z,100397.25
2022-10-29T01:26:15.769Z,100394.34
2022-10-29T01:29:22.347Z,100400.97
2022-10-29T01:32:07.253Z,100389.75
2022-10-29T01:34:51.176Z,100394.63
2022-10-29T01:37:17.988Z,100384.47
2022-10-29T01:39:55.362Z,100384.31
2022-10-29T01:42:28.238Z,100384.94
2022-10-29T01:45:08.793Z,100381.06
2022-10-29T01:47:57.713Z,100377.97
2022-10-29T01:50:25.982Z,100370.81
2022-10-29T01:52:54.789Z,100365.22
2022-10-29T01:55:29.575Z,100363.31
2022-10-29T01:57:56.760Z,100354.53
2022-10-29T02:00:24.625Z,100364.84
2022-10-29T02:03:09.653Z,100363.38
2022-10-29T02:05:58.589Z,100360.72
2022-10-29T02:08:45.198Z,100365.66
2022-10-29T02:11:20.227Z,100362.56
2022-10-29T02:13:56.796Z,100357.44
2022-10-29T02:16:23.916Z,100363.84
2022-10-29T02:18:53.422Z,100357.91
2022-10-29T02:21:21.275Z,100354.88
2022-10-29T02:23:48.165Z,100352.97
2022-10-29T02:26:16.143Z,100363.22
2022-10-29T02:28:43.461Z,100362.50
2022-10-29T02:31:10.765Z,100356.13
2022-10-29T02:33:37.594Z,100368.16
2022-10-29T02:36:04.802Z,100360.09
2022-10-29T02:38:31.593Z,100353.25
2022-10-29T02:40:58.442Z,100345.25
2022-10-29T02:43:25.354Z,100350.31
2022-10-29T02:46:10.815Z,100346.78
2022-10-29T02:48:37.667Z,100346.84
2022-10-29T02:51:04.557Z,100339.72
2022-10-29T02:53:31.383Z,100350.31
2022-10-29T02:55:58.273Z,100341.72
2022-10-29T02:58:25.061Z,100340.25
2022-10-29T03:00:53.012Z,100340.81
2022-10-29T03:03:20.173Z,100339.88
2022-10-29T03:05:49.101Z,100343.97
2022-10-29T03:08:16.713Z,100344.00
2022-10-29T03:10:43.714Z,100344.31
2022-10-29T03:13:10.743Z,100349.19
2022-10-29T03:15:37.792Z,100353.16
2022-10-29T03:18:05.462Z,100353.78
2022-10-29T03:20:41.816Z,100356.94
2022-10-29T03:23:08.653Z,100349.94
2022-10-29T03:25:35.438Z,100349.88
2022-10-29T03:28:02.222Z,100339.97
2022-10-29T03:30:29.207Z,100337.50
2022-10-29T03:32:59.028Z,100329.97
2022-10-29T03:35:45.175Z,100347.75
2022-10-29T03:38:12.037Z,100342.78
2022-10-29T03:40:38.813Z,100345.72
2022-10-29T03:43:05.717Z,100342.97
2022-10-29T03:45:32.557Z,100348.44
2022-10-29T03:47:59.435Z,100351.09
2022-10-29T03:50:26.343Z,100347.66
2022-10-29T03:52:53.363Z,100345.00
2022-10-29T03:55:38.974Z,100356.03
2022-10-29T03:58:05.803Z,100359.66
2022-10-29T04:00:32.708Z,100344.00
2022-10-29T04:03:02.088Z,100344.75
2022-10-29T04:05:29.023Z,100348.25
2022-10-29T04:07:58.000Z,100345.81
2022-10-29T04:10:26.085Z,100346.75
2022-10-29T04:12:53.547Z,100342.31
2022-10-29T04:15:20.618Z,100346.34
2022-10-29T04:17:51.237Z,100333.78
2022-10-29T04:20:41.287Z,100339.31
2022-10-29T04:24:12.280Z,100337.63
2022-10-29T04:28:36.872Z,100338.06
2022-10-29T04:28:50.963Z,100342.47
2022-10-29T04:31:18.850Z,100340.81
2022-10-29T04:33:46.456Z,100348.69
2022-10-29T04:36:13.373Z,100346.47
2022-10-29T04:38:40.367Z,100343.72
2022-10-29T04:41:07.200Z,100343.16
2022-10-29T04:43:34.064Z,100348.84
2022-10-29T04:46:00.993Z,100347.34
2022-10-29T04:48:29.163Z,100350.84
2022-10-29T04:50:56.112Z,100347.34
2022-10-29T04:53:22.978Z,100349.38
2022-10-29T04:55:49.948Z,100356.09
2022-10-29T04:58:20.465Z,100345.59
2022-10-29T05:00:47.346Z,100345.50
2022-10-29T05:03:14.247Z,100337.53
2022-10-29T05:05:41.976Z,100343.28
2022-10-29T05:08:10.529Z,100354.47
2022-10-29T05:10:39.636Z,100352.59
2022-10-29T05:13:09.997Z,100342.31
2022-10-29T05:15:37.744Z,100347.91
2022-10-29T05:18:05.265Z,100351.88
2022-10-29T05:20:32.605Z,100365.91
2022-10-29T05:23:17.655Z,100351.50
2022-10-29T05:25:46.597Z,100355.78
2022-10-29T05:28:22.138Z,100367.06
2022-10-29T05:30:50.575Z,100355.56
2022-10-29T05:33:20.594Z,100358.88
2022-10-29T05:35:47.488Z,100362.09
2022-10-29T05:38:15.442Z,100365.25
2022-10-29T05:40:45.303Z,100366.47
2022-10-29T05:43:16.961Z,100372.63
2022-10-29T05:45:44.866Z,100362.69
2022-10-29T05:50:45.080Z,100369.44
2022-10-29T05:53:14.410Z,100367.59
2022-10-29T05:55:41.920Z,100375.38
2022-10-29T05:58:13.368Z,100383.13
2022-10-29T06:00:43.352Z,100388.66
2022-10-29T06:03:18.577Z,100381.81
2022-10-29T06:05:47.041Z,100381.06
2022-10-29T06:08:14.029Z,100380.41
2022-10-29T06:10:40.832Z,100384.81
2022-10-29T06:13:15.464Z,100397.97
2022-10-29T06:15:42.304Z,100412.75
2022-10-29T06:18:09.251Z,100391.47
2022-10-29T06:20:37.244Z,100396.94
2022-10-29T06:23:04.410Z,100406.53
2022-10-29T06:25:31.676Z,100394.81
2022-10-29T06:28:19.353Z,100400.09
2022-10-29T06:30:49.122Z,100404.19
2022-10-29T06:33:17.330Z,100410.94
2022-10-29T06:35:44.211Z,100407.25
2022-10-29T06:38:12.375Z,100410.94
2022-10-29T06:40:40.292Z,100411.94
2022-10-29T06:43:09.618Z,100409.41
2022-10-29T06:45:36.671Z,100402.28
2022-10-29T06:48:05.303Z,100398.94
2022-10-29T06:50:32.398Z,100396.94
2022-10-29T06:53:01.897Z,100406.09
2022-10-29T06:55:29.315Z,100406.47
2022-10-29T06:58:00.847Z,100408.81
2022-10-29T07:00:28.999Z,100409.50
2022-10-29T07:02:57.290Z,100412.78
2022-10-29T07:05:24.597Z,100418.63
2022-10-29T07:07:58.867Z,100403.91
2022-10-29T07:10:27.854Z,100412.44
2022-10-29T07:12:54.872Z,100413.41
2022-10-29T07:15:25.699Z,100410.78
2022-10-29T07:17:55.937Z,100416.47
2022-10-29T07:20:23.008Z,100412.88
2022-10-29T07:22:49.858Z,100414.44
2022-10-29T07:25:16.697Z,100408.41
2022-10-29T07:27:43.860Z,100414.22
2022-10-29T07:30:10.882Z,100406.28
2022-10-29T07:32:37.739Z,100406.56
2022-10-29T07:35:04.898Z,100405.03
2022-10-29T07:37:31.704Z,100411.72
2022-10-29T07:39:58.539Z,100412.31
2022-10-29T07:42:25.312Z,100412.09
2022-10-29T07:44:52.073Z,100416.81
2022-10-29T07:47:18.920Z,100418.63
2022-10-29T07:49:45.681Z,100425.34
2022-10-29T07:52:12.623Z,100426.16
2022-10-29T07:54:39.434Z,100418.44
2022-10-29T07:57:06.207Z,100417.50
2022-10-29T07:59:33.113Z,100410.81
2022-10-29T08:01:59.940Z,100416.13
2022-10-29T08:04:26.744Z,100412.47
2022-10-29T08:06:53.562Z,100416.72
2022-10-29T08:09:20.392Z,100406.78
2022-10-29T08:14:20.311Z,100405.25
2022-10-29T08:16:49.592Z,100405.31
2022-10-29T08:19:16.376Z,100412.19
2022-10-29T08:21:43.265Z,100407.31
2022-10-29T08:24:11.016Z,100406.34
2022-10-29T08:26:37.812Z,100409.09
2022-10-29T08:29:04.888Z,100404.19
2022-10-29T08:31:31.825Z,100403.91
2022-10-29T08:33:58.675Z,100404.63
2022-10-29T08:36:25.445Z,100404.41
2022-10-29T08:38:52.332Z,100410.13
2022-10-29T08:41:24.701Z,100399.50
2022-10-29T08:43:51.451Z,100390.41
2022-10-29T08:46:47.825Z,100396.94
2022-10-29T08:49:23.827Z,100388.94
2022-10-29T08:52:00.505Z,100391.97
2022-10-29T08:54:32.472Z,100386.56
2022-10-29T08:57:22.783Z,100383.44
2022-10-29T09:00:04.997Z,100383.44
2022-10-29T09:02:32.193Z,100373.75
2022-10-29T09:04:59.695Z,100382.91
2022-10-29T09:08:02.088Z,100379.44
2022-10-29T09:10:47.398Z,100372.81
2022-10-29T09:13:38.457Z,100368.41
2022-10-29T09:16:29.376Z,100376.75
2022-10-29T09:19:08.461Z,100370.72
2022-10-29T09:21:48.929Z,100373.06
2022-10-29T09:24:29.919Z,100361.84
2022-10-29T09:27:08.114Z,100362.91
2022-10-29T09:30:02.782Z,100366.09
2022-10-29T09:32:47.694Z,100365.88
2022-10-29T09:35:17.607Z,100358.59
2022-10-29T09:37:55.051Z,100356.81
2022-10-29T09:40:34.225Z,100347.53
2022-10-29T09:43:06.420Z,100346.81
2022-10-29T09:45:46.434Z,100340.28
2022-10-29T09:48:33.121Z,100338.03
2022-10-29T09:51:15.397Z,100339.69
2022-10-29T09:53:42.312Z,100328.16
2022-10-29T09:56:09.903Z,100326.53
2022-10-29T09:58:41.898Z,100315.38
2022-10-29T10:01:08.780Z,100319.31
2022-10-29T10:03:45.829Z,100308.38
2022-10-29T10:06:15.004Z,100310.19
2022-10-29T10:09:02.831Z,100307.78
2022-10-29T10:11:42.283Z,100300.00
2022-10-29T10:14:22.427Z,100294.84
2022-10-29T10:17:02.960Z,100285.34
2022-10-29T10:19:32.466Z,100275.41
2022-10-29T10:22:04.837Z,100281.16
2022-10-29T10:24:35.630Z,100272.34
2022-10-29T10:27:29.502Z,100267.88
2022-10-29T10:30:05.183Z,100264.03
2022-10-29T10:32:32.564Z,100264.03
2022-10-29T10:34:59.371Z,100259.91
2022-10-29T10:37:26.323Z,100264.94
2022-10-29T10:40:01.889Z,100257.63
2022-10-29T10:42:32.594Z,100256.81
2022-10-29T10:45:02.457Z,100248.94
2022-10-29T10:47:36.996Z,100246.72
2022-10-29T10:50:33.899Z,100238.06
2022-10-29T10:53:04.757Z,100241.97
2022-10-29T10:55:46.801Z,100229.91
2022-10-29T10:58:24.831Z,100235.69
2022-10-29T11:01:15.267Z,100235.34
2022-10-29T11:03:50.541Z,100235.25
2022-10-29T11:06:25.183Z,100229.09
2022-10-29T11:09:19.648Z,100216.56
2022-10-29T11:11:59.932Z,100219.38
2022-10-29T11:15:19.274Z,100209.50
2022-10-29T11:18:00.211Z,100207.78
2022-10-29T11:20:32.493Z,100205.84
2022-10-29T11:23:04.893Z,100207.34
2022-10-29T11:25:49.341Z,100203.97
2022-10-29T11:28:27.955Z,100203.16
2022-10-29T11:31:13.453Z,100201.03
2022-10-29T11:33:49.253Z,100200.63
2022-10-29T11:36:22.365Z,100196.06
2022-10-29T11:39:09.120Z,100188.66
2022-10-29T11:41:46.457Z,100180.22
2022-10-29T11:44:15.492Z,100173.69
2022-10-29T11:46:59.093Z,100170.84
2022-10-29T11:49:44.234Z,100173.78
2022-10-29T11:52:22.373Z,100168.56
2022-10-29T11:55:00.378Z,100159.94
2022-10-29T11:57:50.249Z,100158.41
2022-10-29T12:00:23.923Z,100160.22
2022-10-29T12:02:57.268Z,100160.03
2022-10-29T12:05:40.815Z,100164.53
2022-10-29T12:08:52.599Z,100158.13
2022-10-29T12:11:45.582Z,100155.47
2022-10-29T12:14:33.516Z,100153.03
2022-10-29T12:17:13.337Z,100145.97
2022-10-29T12:19:45.912Z,100151.38
2022-10-29T12:22:45.324Z,100149.09
2022-10-29T12:25:18.241Z,100160.97
2022-10-29T12:28:22.077Z,100148.75
2022-10-29T12:31:20.360Z,100151.31
2022-10-29T12:34:05.990Z,100142.41
2022-10-29T12:36:53.442Z,100140.78
2022-10-29T12:39:32.450Z,100140.28
2022-10-29T12:42:05.180Z,100134.06
2022-10-29T12:44:45.444Z,100140.41
2022-10-29T12:47:31.295Z,100131.41
2022-10-29T12:50:11.024Z,100129.06
2022-10-29T12:52:50.184Z,100123.03
2022-10-29T12:55:17.955Z,100126.41
2022-10-29T12:57:44.828Z,100124.69
2022-10-29T13:00:47.632Z,100129.44
2022-10-29T13:03:52.632Z,100124.97
2022-10-29T13:07:10.400Z,100121.13
2022-10-29T13:09:37.376Z,100114.00
2022-10-29T13:12:09.953Z,100115.97
2022-10-29T13:14:45.566Z,100114.91
2022-10-29T13:17:24.597Z,100122.22
2022-10-29T13:20:33.396Z,100119.66
2022-10-29T13:23:03.999Z,100118.69
2022-10-29T13:25:33.339Z,100113.34
2022-10-29T13:28:09.199Z,100109.19
2022-10-29T13:30:44.441Z,100104.78
2022-10-29T13:33:26.430Z,100110.41
2022-10-29T13:36:04.713Z,100100.59
2022-10-29T13:39:05.256Z,100111.19
2022-10-29T13:41:43.438Z,100109.66
2022-10-29T13:44:13.966Z,100108.94
2022-10-29T13:47:01.259Z,100099.25
2022-10-29T13:49:37.115Z,100109.69
2022-10-29T13:52:12.394Z,100094.34
2022-10-29T13:55:00.504Z,100105.06
2022-10-29T13:57:50.922Z,100110.38
2022-10-29T14:00:21.841Z,100103.41
2022-10-29T14:03:04.622Z,100096.47
2022-10-29T14:05:46.661Z,100103.41
2022-10-29T14:08:13.489Z,100102.53
2022-10-29T14:10:40.205Z,100103.56
2022-10-29T14:13:28.219Z,100095.88
2022-10-29T14:16:11.567Z,100094.25
2022-10-29T14:18:44.232Z,100084.88
2022-10-29T14:21:35.573Z,100098.81
2022-10-29T14:24:10.890Z,100094.63
2022-10-29T14:26:43.282Z,100087.75
2022-10-29T14:29:25.309Z,100092.25
2022-10-29T14:32:22.744Z,100087.88
2022-10-29T14:34:50.980Z,100088.13
2022-10-29T14:37:23.333Z,100091.59
2022-10-29T14:39:58.736Z,100091.66
2022-10-29T14:42:32.378Z,100096.16
2022-10-29T14:45:03.191Z,100084.81
2022-10-29T14:47:36.226Z,100093.44
2022-10-29T14:50:06.756Z,100077.38
2022-10-29T14:52:43.994Z,100087.69
2022-10-29T14:55:21.025Z,100096.88
2022-10-29T14:58:14.907Z,100099.09
2022-10-29T15:01:06.057Z,100095.78
2022-10-29T15:03:35.175Z,100110.84
2022-10-29T15:06:16.747Z,100110.16
2022-10-29T15:08:56.577Z,100102.53
2022-10-29T15:11:37.626Z,100119.28
2022-10-29T15:14:24.203Z,100123.75
2022-10-29T15:16:51.159Z,100124.63
2022-10-29T15:19:18.666Z,100119.31
2022-10-29T15:21:45.983Z,100123.69
2022-10-29T15:24:20.404Z,100129.16
2022-10-29T15:26:56.406Z,100126.75
2022-10-29T15:29:32.239Z,100120.78
2022-10-29T15:32:01.155Z,100135.78
2022-10-29T15:34:28.012Z,100134.94
2022-10-29T15:36:58.633Z,100142.00
2022-10-29T15:39:49.577Z,100139.47
2022-10-29T15:42:27.712Z,100136.88
2022-10-29T15:48:06.162Z,100136.97
2022-10-29T15:50:40.020Z,100142.31
2022-10-29T15:53:11.732Z,100149.34
2022-10-29T15:55:38.695Z,100142.38
2022-10-29T15:58:17.793Z,100152.88
2022-10-29T16:00:44.665Z,100155.56
2022-10-29T16:03:20.683Z,100153.84
2022-10-29T16:05:50.110Z,100151.22
2022-10-29T16:08:30.237Z,100162.59
2022-10-29T16:10:58.118Z,100157.38
2022-10-29T16:13:27.080Z,100164.38
2022-10-29T16:15:53.967Z,100165.25
2022-10-29T16:18:21.168Z,100174.91
2022-10-29T16:20:49.007Z,100168.78
2022-10-29T16:23:15.945Z,100175.78
2022-10-29T16:25:42.721Z,100172.28
2022-10-29T16:28:10.308Z,100168.78
2022-10-29T16:33:11.584Z,100167.06
2022-10-29T16:35:57.259Z,100185.41
2022-10-29T16:38:24.008Z,100178.38
2022-10-29T16:40:51.370Z,100177.53
2022-10-29T16:43:18.219Z,100180.13
2022-10-29T16:45:45.078Z,100177.50
2022-10-29T16:48:11.884Z,100175.72
2022-10-29T16:50:38.780Z,100171.28
2022-10-29T16:53:11.234Z,100164.28
2022-10-29T16:55:40.461Z,100164.28
2022-10-29T16:58:11.692Z,100169.50
2022-10-29T17:00:38.673Z,100168.63
2022-10-29T17:03:11.108Z,100173.84
2022-10-29T17:05:40.383Z,100169.47
2022-10-29T17:08:07.302Z,100164.22
2022-10-29T17:10:34.695Z,100168.56
2022-10-29T17:13:01.894Z,100169.41
2022-10-29T17:15:29.181Z,100175.44
2022-10-29T17:17:56.218Z,100177.16
2022-10-29T17:20:23.252Z,100168.38
2022-10-29T17:22:50.085Z,100170.13
2022-10-29T17:25:16.994Z,100162.16
2022-10-29T17:27:44.533Z,100166.50
2022-10-29T17:30:11.792Z,100176.94
2022-10-29T17:32:38.773Z,100181.19
2022-10-29T17:35:05.993Z,100178.50
2022-10-29T17:37:32.893Z,100188.09
2022-10-29T17:40:03.146Z,100192.41
2022-10-29T17:42:33.792Z,100182.72
2022-10-29T17:45:00.619Z,100180.03
2022-10-29T17:47:27.507Z,100187.81
2022-10-29T17:49:54.424Z,100196.63
2022-10-29T17:52:22.392Z,100189.63
2022-10-29T17:54:49.217Z,100197.47
2022-10-29T17:57:16.128Z,100196.56
2022-10-29T17:59:42.934Z,100184.31
2022-10-29T18:02:11.527Z,100186.84
2022-10-29T18:04:38.443Z,100192.91
2022-10-29T18:07:05.281Z,100186.75
2022-10-29T18:09:32.076Z,100197.91
2022-10-29T18:11:58.983Z,100194.28
2022-10-29T18:14:25.752Z,100195.94
2022-10-29T18:16:52.527Z,100187.09
2022-10-29T18:19:19.448Z,100187.94
2022-10-29T18:21:46.246Z,100201.88
2022-10-29T18:24:13.072Z,100194.91
2022-10-29T18:26:39.937Z,100191.34
2022-10-29T18:29:09.044Z,100188.63
2022-10-29T18:31:37.710Z,100191.34
2022-10-29T18:34:06.695Z,100194.16
2022-10-29T18:36:35.852Z,100188.09
2022-10-29T18:39:04.158Z,100194.09
2022-10-29T18:41:31.579Z,100194.03
2022-10-29T18:43:59.043Z,100183.56
2022-10-29T18:46:26.074Z,100185.13
2022-10-29T18:48:53.210Z,100193.72
2022-10-29T18:51:24.464Z,100189.31
2022-10-29T18:53:52.888Z,100190.09
2022-10-29T18:56:21.988Z,100191.75
2022-10-29T18:58:49.181Z,100183.81
2022-10-29T19:01:18.555Z,100188.06
2022-10-29T19:03:50.760Z,100181.09
2022-10-29T19:06:18.106Z,100191.59
2022-10-29T19:08:45.198Z,100183.53
2022-10-29T19:11:14.969Z,100186.25
2022-10-29T19:13:42.050Z,100188.94
2022-10-29T19:16:13.529Z,100180.22
2022-10-29T19:18:41.329Z,100186.13
2022-10-29T19:21:12.421Z,100187.06
2022-10-29T19:23:40.056Z,100195.63
2022-10-29T19:26:09.474Z,100198.88
2022-10-29T19:28:36.685Z,100186.91
2022-10-29T19:31:07.726Z,100198.91
2022-10-29T19:33:53.443Z,100187.69
2022-10-29T19:36:40.454Z,100181.50
2022-10-29T19:39:07.988Z,100198.03
2022-10-29T19:41:35.486Z,100189.22
2022-10-29T19:44:03.179Z,100182.38
2022-10-29T19:46:30.466Z,100185.34
2022-10-29T19:49:00.853Z,100184.72
2022-10-29T19:51:27.917Z,100179.56
2022-10-29T19:53:55.077Z,100188.22
2022-10-29T19:56:21.987Z,100184.88
2022-10-29T19:58:49.296Z,100189.22
2022-10-29T20:01:17.767Z,100175.31
2022-10-29T20:03:45.705Z,100192.78
2022-10-29T20:06:13.061Z,100190.13
2022-10-29T20:08:39.892Z,100194.34
2022-10-29T20:11:07.236Z,100192.53
2022-10-29T20:13:34.463Z,100197.63
2022-10-29T20:16:07.986Z,100194.84
2022-10-29T20:18:36.042Z,100193.22
2022-10-29T20:21:02.991Z,100194.38
2022-10-29T20:23:30.060Z,100207.00
2022-10-29T20:25:56.894Z,100199.22
2022-10-29T20:28:23.785Z,100203.59
2022-10-29T20:30:50.694Z,100205.22
2022-10-29T20:33:17.536Z,100199.81
2022-10-29T20:35:44.432Z,100204.16
2022-10-29T20:38:11.312Z,100204.25
2022-10-29T20:40:38.152Z,100193.47
2022-10-29T20:43:05.095Z,100208.25
2022-10-29T20:45:32.026Z,100205.50
2022-10-29T20:48:03.132Z,100214.34
2022-10-29T20:50:29.983Z,100211.41
2022-10-29T20:52:56.821Z,100205.94
2022-10-29T20:55:23.685Z,100208.41
2022-10-29T20:57:50.537Z,100207.34
2022-10-29T21:00:17.605Z,100213.28
2022-10-29T21:02:44.487Z,100212.34
2022-10-29T21:05:11.494Z,100215.84
2022-10-29T21:07:41.257Z,100209.72
2022-10-29T21:10:08.751Z,100216.69
2022-10-29T21:12:35.695Z,100221.72
2022-10-29T21:15:02.533Z,100218.31
2022-10-29T21:17:29.464Z,100216.47
2022-10-29T21:19:56.258Z,100203.47
2022-10-29T21:22:23.108Z,100198.25
2022-10-29T21:24:49.938Z,100193.00
2022-10-29T21:27:16.804Z,100187.75
2022-10-29T21:29:43.595Z,100192.25
2022-10-29T21:32:12.862Z,100184.47
2022-10-29T21:34:42.720Z,100178.44
2022-10-29T21:37:09.480Z,100180.88
2022-10-29T21:39:36.322Z,100179.31
2022-10-29T21:42:03.412Z,100177.34
2022-10-29T21:44:30.222Z,100171.38
2022-10-29T21:46:57.007Z,100175.59
2022-10-29T21:49:24.044Z,100171.19
2022-10-29T21:51:50.841Z,100179.72
2022-10-29T21:54:17.653Z,100176.31
2022-10-29T21:56:44.661Z,100178.97
2022-10-29T21:59:11.468Z,100175.34
2022-10-29T22:01:38.396Z,100170.31
2022-10-29T22:04:05.494Z,100162.69
2022-10-29T22:06:32.287Z,100178.25
2022-10-29T22:09:00.273Z,100175.47
2022-10-29T22:11:28.979Z,100176.94
2022-10-29T22:13:55.782Z,100168.34
2022-10-29T22:16:23.004Z,100162.19
2022-10-29T22:18:51.237Z,100156.91
2022-10-29T22:21:20.739Z,100156.88
2022-10-29T22:23:49.670Z,100156.03
2022-10-29T22:26:18.645Z,100152.19
2022-10-29T22:28:47.352Z,100142.56
2022-10-29T22:33:34.037Z,100143.22
2022-10-29T22:36:11.967Z,100144.78
2022-10-29T22:38:39.346Z,100141.59
2022-10-29T22:41:11.829Z,100138.88
2022-10-29T22:43:39.505Z,100132.56
2022-10-29T22:46:14.036Z,100132.44
2022-10-29T22:48:41.165Z,100132.72
2022-10-29T22:51:13.036Z,100131.19
2022-10-29T22:53:39.968Z,100130.06
2022-10-29T22:56:07.437Z,100121.41
2022-10-29T22:58:34.572Z,100113.97
2022-10-29T23:01:07.367Z,100117.47
2022-10-29T23:03:35.107Z,100116.56
2022-10-29T23:06:04.217Z,100114.75
2022-10-29T23:08:32.419Z,100116.13
2022-10-29T23:11:03.821Z,100108.47
2022-10-29T23:13:30.688Z,100109.94
2022-10-29T23:15:57.678Z,100100.16
2022-10-29T23:18:24.470Z,100100.38
2022-10-29T23:21:02.357Z,100105.97
2022-10-29T23:23:30.318Z,100083.31
2022-10-29T23:26:01.394Z,100094.00
2022-10-29T23:28:30.219Z,100097.09
2022-10-29T23:30:58.741Z,100089.41
2022-10-29T23:33:27.123Z,100095.28
2022-10-29T23:35:54.084Z,100108.59
2022-10-29T23:38:21.199Z,100101.63
2022-10-29T23:40:48.664Z,100100.69
2022-10-29T23:43:15.762Z,100094.75
2022-10-29T23:45:43.195Z,100092.22
2022-10-29T23:48:10.313Z,100090.56
2022-10-29T23:50:38.187Z,100091.53
2022-10-29T23:53:07.132Z,100086.88
2022-10-29T23:55:34.801Z,100079.97
2022-10-29T23:58:02.472Z,100093.41
